sensor_id;sensor_type;location;lat;lon;timestamp;P1;durP1;ratioP1;P2;durP2;ratioP2
50900;SDS011;36879;51.416;6.678;2022-08-21T00:00:23;4.97;;;3.40;;
50900;SDS011;36879;51.416;6.678;2022-08-21T00:04:03;6.75;;;3.58;;
50900;SDS011;36879;51.416;6.678;2022-08-21T00:07:35;13.93;;;4.38;;
50900;SDS011;36879;51.416;6.678;2022-08-21T00:11:11;5.28;;;3.40;;
50900;SDS011;36879;51.416;6.678;2022-08-21T00:13:37;7.43;;;3.65;;
50900;SDS011;36879;51.416;6.678;2022-08-21T00:16:03;4.75;;;3.40;;
50900;SDS011;36879;51.416;6.678;2022-08-21T00:18:29;10.38;;;4.13;;
50900;SDS011;36879;51.416;6.678;2022-08-21T00:20:56;6.00;;;3.55;;
50900;SDS011;36879;51.416;6.678;2022-08-21T00:23:22;11.07;;;4.03;;
50900;SDS011;36879;51.416;6.678;2022-08-21T00:25:48;7.03;;;4.80;;
50900;SDS011;36879;51.416;6.678;2022-08-21T00:28:14;6.97;;;4.40;;
50900;SDS011;36879;51.416;6.678;2022-08-21T00:30:41;10.75;;;5.07;;
50900;SDS011;36879;51.416;6.678;2022-08-21T00:33:08;15.30;;;5.43;;
50900;SDS011;36879;51.416;6.678;2022-08-21T00:35:35;8.98;;;5.05;;
50900;SDS011;36879;51.416;6.678;2022-08-21T00:38:03;8.10;;;4.80;;
50900;SDS011;36879;51.416;6.678;2022-08-21T00:40:31;9.30;;;4.53;;
50900;SDS011;36879;51.416;6.678;2022-08-21T00:42:58;6.40;;;4.50;;
50900;SDS011;36879;51.416;6.678;2022-08-21T00:45:24;9.02;;;5.10;;
50900;SDS011;36879;51.416;6.678;2022-08-21T00:47:52;7.38;;;5.13;;
50900;SDS011;36879;51.416;6.678;2022-08-21T00:50:20;8.52;;;5.00;;
50900;SDS011;36879;51.416;6.678;2022-08-21T00:52:46;7.93;;;5.13;;
50900;SDS011;36879;51.416;6.678;2022-08-21T00:55:13;6.13;;;4.20;;
50900;SDS011;36879;51.416;6.678;2022-08-21T00:57:41;6.00;;;4.40;;
50900;SDS011;36879;51.416;6.678;2022-08-21T01:00:10;9.40;;;5.50;;
50900;SDS011;36879;51.416;6.678;2022-08-21T01:02:36;9.13;;;4.30;;
50900;SDS011;36879;51.416;6.678;2022-08-21T01:05:02;8.77;;;5.43;;
50900;SDS011;36879;51.416;6.678;2022-08-21T01:07:29;8.68;;;5.72;;
50900;SDS011;36879;51.416;6.678;2022-08-21T01:09:56;8.98;;;5.22;;
50900;SDS011;36879;51.416;6.678;2022-08-21T01:12:22;8.30;;;5.10;;
50900;SDS011;36879;51.416;6.678;2022-08-21T01:14:49;7.47;;;5.22;;
50900;SDS011;36879;51.416;6.678;2022-08-21T01:17:15;17.20;;;5.78;;
50900;SDS011;36879;51.416;6.678;2022-08-21T01:19:41;8.43;;;5.68;;
50900;SDS011;36879;51.416;6.678;2022-08-21T01:22:07;8.98;;;5.68;;
50900;SDS011;36879;51.416;6.678;2022-08-21T01:24:33;7.38;;;5.53;;
50900;SDS011;36879;51.416;6.678;2022-08-21T01:26:59;8.48;;;5.05;;
50900;SDS011;36879;51.416;6.678;2022-08-21T01:29:29;8.30;;;5.68;;
50900;SDS011;36879;51.416;6.678;2022-08-21T01:31:55;13.13;;;5.93;;
50900;SDS011;36879;51.416;6.678;2022-08-21T01:34:22;8.38;;;5.75;;
50900;SDS011;36879;51.416;6.678;2022-08-21T01:36:48;12.15;;;6.53;;
50900;SDS011;36879;51.416;6.678;2022-08-21T01:39:14;10.10;;;5.80;;
50900;SDS011;36879;51.416;6.678;2022-08-21T01:41:40;11.85;;;5.40;;
50900;SDS011;36879;51.416;6.678;2022-08-21T01:44:06;9.65;;;6.07;;
50900;SDS011;36879;51.416;6.678;2022-08-21T01:46:32;15.25;;;6.82;;
50900;SDS011;36879;51.416;6.678;2022-08-21T01:48:58;10.77;;;6.72;;
50900;SDS011;36879;51.416;6.678;2022-08-21T01:51:25;14.52;;;5.63;;
50900;SDS011;36879;51.416;6.678;2022-08-21T01:53:51;7.93;;;6.45;;
50900;SDS011;36879;51.416;6.678;2022-08-21T01:56:17;10.45;;;6.85;;
50900;SDS011;36879;51.416;6.678;2022-08-21T01:58:44;10.68;;;6.80;;
50900;SDS011;36879;51.416;6.678;2022-08-21T02:01:11;14.23;;;7.20;;
50900;SDS011;36879;51.416;6.678;2022-08-21T02:03:37;9.85;;;6.30;;
50900;SDS011;36879;51.416;6.678;2022-08-21T02:06:04;10.18;;;5.82;;
50900;SDS011;36879;51.416;6.678;2022-08-21T02:08:31;12.63;;;6.15;;
50900;SDS011;36879;51.416;6.678;2022-08-21T02:10:57;11.38;;;6.78;;
50900;SDS011;36879;51.416;6.678;2022-08-21T02:13:24;12.48;;;6.65;;
50900;SDS011;36879;51.416;6.678;2022-08-21T02:15:50;10.07;;;6.95;;
50900;SDS011;36879;51.416;6.678;2022-08-21T02:18:16;13.63;;;7.22;;
50900;SDS011;36879;51.416;6.678;2022-08-21T02:20:44;12.20;;;7.15;;
50900;SDS011;36879;51.416;6.678;2022-08-21T02:23:11;14.00;;;8.48;;
50900;SDS011;36879;51.416;6.678;2022-08-21T02:25:37;10.20;;;7.00;;
50900;SDS011;36879;51.416;6.678;2022-08-21T02:28:08;12.27;;;6.47;;
50900;SDS011;36879;51.416;6.678;2022-08-21T02:30:37;13.32;;;6.72;;
50900;SDS011;36879;51.416;6.678;2022-08-21T02:33:03;9.60;;;6.75;;
50900;SDS011;36879;51.416;6.678;2022-08-21T02:35:29;12.35;;;6.57;;
50900;SDS011;36879;51.416;6.678;2022-08-21T02:37:57;7.47;;;6.35;;
50900;SDS011;36879;51.416;6.678;2022-08-21T02:40:26;10.40;;;6.18;;
50900;SDS011;36879;51.416;6.678;2022-08-21T02:42:52;7.45;;;5.85;;
50900;SDS011;36879;51.416;6.678;2022-08-21T02:45:18;9.57;;;6.90;;
50900;SDS011;36879;51.416;6.678;2022-08-21T02:47:51;9.45;;;7.15;;
50900;SDS011;36879;51.416;6.678;2022-08-21T02:50:23;10.88;;;7.53;;
50900;SDS011;36879;51.416;6.678;2022-08-21T02:52:50;14.38;;;8.60;;
50900;SDS011;36879;51.416;6.678;2022-08-21T02:55:17;10.98;;;7.20;;
50900;SDS011;36879;51.416;6.678;2022-08-21T02:57:43;14.43;;;8.18;;
50900;SDS011;36879;51.416;6.678;2022-08-21T03:00:10;12.40;;;8.68;;
50900;SDS011;36879;51.416;6.678;2022-08-21T03:02:37;12.80;;;8.98;;
50900;SDS011;36879;51.416;6.678;2022-08-21T03:05:04;14.90;;;9.32;;
50900;SDS011;36879;51.416;6.678;2022-08-21T03:07:30;10.88;;;7.65;;
50900;SDS011;36879;51.416;6.678;2022-08-21T03:09:56;12.80;;;7.93;;
50900;SDS011;36879;51.416;6.678;2022-08-21T03:12:23;13.50;;;9.90;;
50900;SDS011;36879;51.416;6.678;2022-08-21T03:14:49;15.75;;;9.27;;
50900;SDS011;36879;51.416;6.678;2022-08-21T03:17:15;9.65;;;7.47;;
50900;SDS011;36879;51.416;6.678;2022-08-21T03:19:41;9.10;;;7.32;;
50900;SDS011;36879;51.416;6.678;2022-08-21T03:22:07;13.77;;;7.90;;
50900;SDS011;36879;51.416;6.678;2022-08-21T03:24:33;13.80;;;9.45;;
50900;SDS011;36879;51.416;6.678;2022-08-21T03:26:59;14.68;;;10.02;;
50900;SDS011;36879;51.416;6.678;2022-08-21T03:29:25;12.52;;;8.85;;
50900;SDS011;36879;51.416;6.678;2022-08-21T03:31:51;14.85;;;8.13;;
50900;SDS011;36879;51.416;6.678;2022-08-21T03:34:19;14.18;;;9.63;;
50900;SDS011;36879;51.416;6.678;2022-08-21T03:36:45;12.57;;;9.25;;
50900;SDS011;36879;51.416;6.678;2022-08-21T03:39:12;11.60;;;8.45;;
50900;SDS011;36879;51.416;6.678;2022-08-21T03:41:38;11.63;;;8.70;;
50900;SDS011;36879;51.416;6.678;2022-08-21T03:44:04;12.68;;;7.60;;
50900;SDS011;36879;51.416;6.678;2022-08-21T03:46:30;11.88;;;7.97;;
50900;SDS011;36879;51.416;6.678;2022-08-21T03:48:56;11.73;;;8.20;;
50900;SDS011;36879;51.416;6.678;2022-08-21T03:51:22;15.52;;;7.93;;
50900;SDS011;36879;51.416;6.678;2022-08-21T03:53:48;14.98;;;8.63;;
50900;SDS011;36879;51.416;6.678;2022-08-21T03:56:14;10.68;;;7.88;;
50900;SDS011;36879;51.416;6.678;2022-08-21T03:58:41;13.15;;;8.23;;
50900;SDS011;36879;51.416;6.678;2022-08-21T04:01:07;17.27;;;10.82;;
50900;SDS011;36879;51.416;6.678;2022-08-21T04:03:34;21.02;;;11.32;;
50900;SDS011;36879;51.416;6.678;2022-08-21T04:06:01;15.63;;;9.50;;
50900;SDS011;36879;51.416;6.678;2022-08-21T04:08:27;21.83;;;11.40;;
50900;SDS011;36879;51.416;6.678;2022-08-21T04:10:54;12.63;;;9.10;;
50900;SDS011;36879;51.416;6.678;2022-08-21T04:13:21;16.50;;;10.35;;
50900;SDS011;36879;51.416;6.678;2022-08-21T04:15:47;14.57;;;11.35;;
50900;SDS011;36879;51.416;6.678;2022-08-21T04:18:13;15.25;;;10.90;;
50900;SDS011;36879;51.416;6.678;2022-08-21T04:20:39;19.48;;;11.23;;
50900;SDS011;36879;51.416;6.678;2022-08-21T04:23:07;18.35;;;10.90;;
50900;SDS011;36879;51.416;6.678;2022-08-21T04:25:33;14.95;;;10.45;;
50900;SDS011;36879;51.416;6.678;2022-08-21T04:27:59;14.75;;;10.48;;
50900;SDS011;36879;51.416;6.678;2022-08-21T04:30:26;18.15;;;10.52;;
50900;SDS011;36879;51.416;6.678;2022-08-21T04:32:52;14.30;;;11.25;;
50900;SDS011;36879;51.416;6.678;2022-08-21T04:35:20;17.58;;;13.32;;
50900;SDS011;36879;51.416;6.678;2022-08-21T04:37:46;20.08;;;13.13;;
50900;SDS011;36879;51.416;6.678;2022-08-21T04:40:13;23.05;;;13.80;;
50900;SDS011;36879;51.416;6.678;2022-08-21T04:42:43;20.65;;;15.05;;
50900;SDS011;36879;51.416;6.678;2022-08-21T04:45:23;18.92;;;13.60;;
50900;SDS011;36879;51.416;6.678;2022-08-21T04:47:53;22.65;;;14.98;;
50900;SDS011;36879;51.416;6.678;2022-08-21T04:50:20;21.48;;;14.23;;
50900;SDS011;36879;51.416;6.678;2022-08-21T04:52:48;22.13;;;15.77;;
50900;SDS011;36879;51.416;6.678;2022-08-21T04:55:15;23.75;;;14.55;;
50900;SDS011;36879;51.416;6.678;2022-08-21T04:57:41;19.77;;;14.93;;
50900;SDS011;36879;51.416;6.678;2022-08-21T05:00:07;23.80;;;15.60;;
50900;SDS011;36879;51.416;6.678;2022-08-21T05:02:35;24.67;;;16.52;;
50900;SDS011;36879;51.416;6.678;2022-08-21T05:05:02;20.80;;;16.60;;
50900;SDS011;36879;51.416;6.678;2022-08-21T05:07:29;24.83;;;16.80;;
50900;SDS011;36879;51.416;6.678;2022-08-21T05:09:55;32.47;;;18.90;;
50900;SDS011;36879;51.416;6.678;2022-08-21T05:12:22;22.98;;;16.50;;
50900;SDS011;36879;51.416;6.678;2022-08-21T05:14:48;26.20;;;17.52;;
50900;SDS011;36879;51.416;6.678;2022-08-21T05:17:14;25.83;;;15.82;;
50900;SDS011;36879;51.416;6.678;2022-08-21T05:19:40;22.73;;;16.38;;
50900;SDS011;36879;51.416;6.678;2022-08-21T05:22:06;25.70;;;17.33;;
50900;SDS011;36879;51.416;6.678;2022-08-21T05:24:34;21.88;;;15.85;;
50900;SDS011;36879;51.416;6.678;2022-08-21T05:27:00;22.10;;;15.20;;
50900;SDS011;36879;51.416;6.678;2022-08-21T05:29:26;28.80;;;17.10;;
50900;SDS011;36879;51.416;6.678;2022-08-21T05:31:54;20.83;;;13.80;;
50900;SDS011;36879;51.416;6.678;2022-08-21T05:34:21;19.90;;;11.98;;
50900;SDS011;36879;51.416;6.678;2022-08-21T05:36:47;20.23;;;12.02;;
50900;SDS011;36879;51.416;6.678;2022-08-21T05:39:13;15.40;;;11.57;;
50900;SDS011;36879;51.416;6.678;2022-08-21T05:41:40;13.63;;;9.43;;
50900;SDS011;36879;51.416;6.678;2022-08-21T05:44:06;12.70;;;9.10;;
50900;SDS011;36879;51.416;6.678;2022-08-21T05:46:32;12.98;;;8.48;;
50900;SDS011;36879;51.416;6.678;2022-08-21T05:48:58;10.20;;;7.93;;
50900;SDS011;36879;51.416;6.678;2022-08-21T05:51:24;11.48;;;7.55;;
50900;SDS011;36879;51.416;6.678;2022-08-21T05:53:50;14.75;;;7.70;;
50900;SDS011;36879;51.416;6.678;2022-08-21T05:56:16;17.10;;;7.75;;
50900;SDS011;36879;51.416;6.678;2022-08-21T05:58:42;12.30;;;7.18;;
50900;SDS011;36879;51.416;6.678;2022-08-21T06:01:09;12.85;;;7.38;;
50900;SDS011;36879;51.416;6.678;2022-08-21T06:03:37;21.60;;;7.22;;
50900;SDS011;36879;51.416;6.678;2022-08-21T06:06:03;12.25;;;5.95;;
50900;SDS011;36879;51.416;6.678;2022-08-21T06:08:29;11.15;;;7.15;;
50900;SDS011;36879;51.416;6.678;2022-08-21T06:10:57;14.20;;;6.93;;
50900;SDS011;36879;51.416;6.678;2022-08-21T06:13:24;14.32;;;6.97;;
50900;SDS011;36879;51.416;6.678;2022-08-21T06:15:50;11.95;;;6.30;;
50900;SDS011;36879;51.416;6.678;2022-08-21T06:18:25;7.68;;;5.72;;
50900;SDS011;36879;51.416;6.678;2022-08-21T06:20:51;10.88;;;6.03;;
50900;SDS011;36879;51.416;6.678;2022-08-21T06:23:17;10.05;;;5.90;;
50900;SDS011;36879;51.416;6.678;2022-08-21T06:25:43;16.30;;;6.35;;
50900;SDS011;36879;51.416;6.678;2022-08-21T06:28:10;10.50;;;6.28;;
50900;SDS011;36879;51.416;6.678;2022-08-21T06:30:37;9.73;;;5.53;;
50900;SDS011;36879;51.416;6.678;2022-08-21T06:33:04;10.82;;;5.72;;
50900;SDS011;36879;51.416;6.678;2022-08-21T06:35:32;7.45;;;5.13;;
50900;SDS011;36879;51.416;6.678;2022-08-21T06:37:59;10.27;;;5.70;;
50900;SDS011;36879;51.416;6.678;2022-08-21T06:40:28;12.30;;;5.78;;
50900;SDS011;36879;51.416;6.678;2022-08-21T06:42:54;10.07;;;5.85;;
50900;SDS011;36879;51.416;6.678;2022-08-21T06:45:21;7.65;;;4.90;;
50900;SDS011;36879;51.416;6.678;2022-08-21T06:47:47;10.60;;;5.30;;
50900;SDS011;36879;51.416;6.678;2022-08-21T06:50:14;6.65;;;4.70;;
50900;SDS011;36879;51.416;6.678;2022-08-21T06:52:40;8.77;;;4.43;;
50900;SDS011;36879;51.416;6.678;2022-08-21T06:55:07;9.75;;;4.20;;
50900;SDS011;36879;51.416;6.678;2022-08-21T06:57:34;11.15;;;4.63;;
50900;SDS011;36879;51.416;6.678;2022-08-21T07:00:00;8.70;;;3.75;;
50900;SDS011;36879;51.416;6.678;2022-08-21T07:02:27;10.45;;;3.42;;
50900;SDS011;36879;51.416;6.678;2022-08-21T07:04:53;7.28;;;2.78;;
50900;SDS011;36879;51.416;6.678;2022-08-21T07:07:19;7.25;;;3.15;;
50900;SDS011;36879;51.416;6.678;2022-08-21T07:09:45;12.73;;;3.03;;
50900;SDS011;36879;51.416;6.678;2022-08-21T07:12:11;5.68;;;2.40;;
50900;SDS011;36879;51.416;6.678;2022-08-21T07:14:37;5.43;;;2.83;;
50900;SDS011;36879;51.416;6.678;2022-08-21T07:17:04;11.63;;;2.80;;
50900;SDS011;36879;51.416;6.678;2022-08-21T07:19:30;6.43;;;2.30;;
50900;SDS011;36879;51.416;6.678;2022-08-21T07:21:57;5.40;;;2.05;;
50900;SDS011;36879;51.416;6.678;2022-08-21T07:24:24;6.50;;;2.33;;
50900;SDS011;36879;51.416;6.678;2022-08-21T07:26:50;5.05;;;2.42;;
50900;SDS011;36879;51.416;6.678;2022-08-21T07:29:16;5.45;;;1.90;;
50900;SDS011;36879;51.416;6.678;2022-08-21T07:31:43;5.80;;;2.22;;
50900;SDS011;36879;51.416;6.678;2022-08-21T07:34:09;5.55;;;1.95;;
50900;SDS011;36879;51.416;6.678;2022-08-21T07:36:35;6.47;;;2.10;;
50900;SDS011;36879;51.416;6.678;2022-08-21T07:39:02;16.73;;;2.33;;
50900;SDS011;36879;51.416;6.678;2022-08-21T07:41:28;4.88;;;1.45;;
50900;SDS011;36879;51.416;6.678;2022-08-21T07:43:58;4.38;;;1.65;;
50900;SDS011;36879;51.416;6.678;2022-08-21T07:46:24;4.50;;;2.33;;
50900;SDS011;36879;51.416;6.678;2022-08-21T07:48:50;2.95;;;1.67;;
50900;SDS011;36879;51.416;6.678;2022-08-21T07:51:17;8.75;;;1.60;;
50900;SDS011;36879;51.416;6.678;2022-08-21T07:53:47;4.22;;;1.48;;
50900;SDS011;36879;51.416;6.678;2022-08-21T07:56:15;7.82;;;2.15;;
50900;SDS011;36879;51.416;6.678;2022-08-21T07:58:41;5.75;;;1.42;;
50900;SDS011;36879;51.416;6.678;2022-08-21T08:01:07;2.50;;;1.20;;
50900;SDS011;36879;51.416;6.678;2022-08-21T08:03:33;5.45;;;2.50;;
50900;SDS011;36879;51.416;6.678;2022-08-21T08:05:59;2.88;;;1.50;;
50900;SDS011;36879;51.416;6.678;2022-08-21T08:08:25;4.20;;;1.00;;
50900;SDS011;36879;51.416;6.678;2022-08-21T08:10:52;2.78;;;1.75;;
50900;SDS011;36879;51.416;6.678;2022-08-21T08:13:19;3.25;;;1.10;;
50900;SDS011;36879;51.416;6.678;2022-08-21T08:15:45;1.75;;;1.10;;
50900;SDS011;36879;51.416;6.678;2022-08-21T08:18:11;2.67;;;1.10;;
50900;SDS011;36879;51.416;6.678;2022-08-21T08:20:38;5.00;;;1.50;;
50900;SDS011;36879;51.416;6.678;2022-08-21T08:23:05;4.15;;;0.95;;
50900;SDS011;36879;51.416;6.678;2022-08-21T08:25:32;4.55;;;0.80;;
50900;SDS011;36879;51.416;6.678;2022-08-21T08:27:58;6.10;;;1.10;;
50900;SDS011;36879;51.416;6.678;2022-08-21T08:30:24;4.28;;;0.93;;
50900;SDS011;36879;51.416;6.678;2022-08-21T08:32:50;2.40;;;0.73;;
50900;SDS011;36879;51.416;6.678;2022-08-21T08:35:16;2.72;;;0.90;;
50900;SDS011;36879;51.416;6.678;2022-08-21T08:37:42;3.92;;;1.52;;
50900;SDS011;36879;51.416;6.678;2022-08-21T08:40:11;7.45;;;1.38;;
50900;SDS011;36879;51.416;6.678;2022-08-21T08:42:38;5.00;;;1.15;;
50900;SDS011;36879;51.416;6.678;2022-08-21T08:45:06;3.22;;;1.10;;
50900;SDS011;36879;51.416;6.678;2022-08-21T08:47:35;7.03;;;1.75;;
50900;SDS011;36879;51.416;6.678;2022-08-21T08:50:24;2.20;;;0.88;;
50900;SDS011;36879;51.416;6.678;2022-08-21T08:52:49;2.85;;;1.08;;
50900;SDS011;36879;51.416;6.678;2022-08-21T08:55:19;2.53;;;1.27;;
50900;SDS011;36879;51.416;6.678;2022-08-21T08:57:47;4.38;;;1.00;;
50900;SDS011;36879;51.416;6.678;2022-08-21T09:00:14;2.92;;;1.15;;
50900;SDS011;36879;51.416;6.678;2022-08-21T09:02:42;5.30;;;1.90;;
50900;SDS011;36879;51.416;6.678;2022-08-21T09:05:11;2.75;;;0.90;;
50900;SDS011;36879;51.416;6.678;2022-08-21T09:12:49;1.63;;;1.10;;
50900;SDS011;36879;51.416;6.678;2022-08-21T09:17:55;2.88;;;0.80;;
50900;SDS011;36879;51.416;6.678;2022-08-21T09:25:20;2.03;;;0.70;;
50900;SDS011;36879;51.416;6.678;2022-08-21T09:27:48;2.80;;;1.05;;
50900;SDS011;36879;51.416;6.678;2022-08-21T09:30:15;1.98;;;0.93;;
50900;SDS011;36879;51.416;6.678;2022-08-21T09:32:41;1.38;;;0.70;;
50900;SDS011;36879;51.416;6.678;2022-08-21T09:35:12;2.60;;;0.98;;
50900;SDS011;36879;51.416;6.678;2022-08-21T09:42:53;2.38;;;0.85;;
50900;SDS011;36879;51.416;6.678;2022-08-21T09:45:19;4.60;;;0.88;;
50900;SDS011;36879;51.416;6.678;2022-08-21T09:47:46;2.83;;;0.95;;
50900;SDS011;36879;51.416;6.678;2022-08-21T09:50:23;4.50;;;1.38;;
50900;SDS011;36879;51.416;6.678;2022-08-21T09:52:51;3.03;;;0.75;;
50900;SDS011;36879;51.416;6.678;2022-08-21T09:55:30;3.78;;;1.10;;
50900;SDS011;36879;51.416;6.678;2022-08-21T09:58:15;2.83;;;0.90;;
50900;SDS011;36879;51.416;6.678;2022-08-21T10:00:42;4.88;;;1.00;;
50900;SDS011;36879;51.416;6.678;2022-08-21T10:03:10;4.28;;;1.40;;
50900;SDS011;36879;51.416;6.678;2022-08-21T10:05:37;3.97;;;1.52;;
50900;SDS011;36879;51.416;6.678;2022-08-21T10:08:03;3.72;;;1.20;;
50900;SDS011;36879;51.416;6.678;2022-08-21T10:10:31;3.08;;;0.95;;
50900;SDS011;36879;51.416;6.678;2022-08-21T10:13:03;3.80;;;0.98;;
50900;SDS011;36879;51.416;6.678;2022-08-21T10:16:36;2.28;;;0.98;;
50900;SDS011;36879;51.416;6.678;2022-08-21T10:21:05;3.42;;;0.98;;
50900;SDS011;36879;51.416;6.678;2022-08-21T10:23:49;3.75;;;1.45;;
50900;SDS011;36879;51.416;6.678;2022-08-21T10:26:20;2.35;;;1.30;;
50900;SDS011;36879;51.416;6.678;2022-08-21T10:29:06;1.60;;;0.60;;
50900;SDS011;36879;51.416;6.678;2022-08-21T10:31:44;3.20;;;0.90;;
50900;SDS011;36879;51.416;6.678;2022-08-21T10:39:32;4.68;;;1.13;;
50900;SDS011;36879;51.416;6.678;2022-08-21T10:44:55;3.10;;;0.85;;
50900;SDS011;36879;51.416;6.678;2022-08-21T10:47:34;1.35;;;0.55;;
50900;SDS011;36879;51.416;6.678;2022-08-21T10:55:22;4.88;;;0.88;;
50900;SDS011;36879;51.416;6.678;2022-08-21T10:58:00;2.78;;;0.77;;
50900;SDS011;36879;51.416;6.678;2022-08-21T11:00:30;3.95;;;0.77;;
50900;SDS011;36879;51.416;6.678;2022-08-21T11:05:40;4.32;;;0.70;;
50900;SDS011;36879;51.416;6.678;2022-08-21T11:08:07;1.90;;;0.70;;
50900;SDS011;36879;51.416;6.678;2022-08-21T11:13:30;1.58;;;0.73;;
50900;SDS011;36879;51.416;6.678;2022-08-21T11:15:58;4.97;;;0.95;;
50900;SDS011;36879;51.416;6.678;2022-08-21T11:18:28;1.77;;;0.80;;
50900;SDS011;36879;51.416;6.678;2022-08-21T11:23:33;2.85;;;0.73;;
50900;SDS011;36879;51.416;6.678;2022-08-21T11:26:02;1.23;;;0.80;;
50900;SDS011;36879;51.416;6.678;2022-08-21T11:28:34;2.63;;;1.33;;
50900;SDS011;36879;51.416;6.678;2022-08-21T11:38:40;2.22;;;0.98;;
50900;SDS011;36879;51.416;6.678;2022-08-21T11:43:40;1.67;;;1.00;;
50900;SDS011;36879;51.416;6.678;2022-08-21T11:46:11;6.47;;;1.20;;
50900;SDS011;36879;51.416;6.678;2022-08-21T11:51:21;2.40;;;0.95;;
50900;SDS011;36879;51.416;6.678;2022-08-21T11:53:50;3.10;;;0.85;;
50900;SDS011;36879;51.416;6.678;2022-08-21T11:56:34;0.90;;;0.52;;
50900;SDS011;36879;51.416;6.678;2022-08-21T11:59:03;1.65;;;0.75;;
50900;SDS011;36879;51.416;6.678;2022-08-21T12:01:32;1.55;;;0.68;;
50900;SDS011;36879;51.416;6.678;2022-08-21T12:04:06;1.88;;;0.50;;
50900;SDS011;36879;51.416;6.678;2022-08-21T12:06:35;0.75;;;0.60;;
50900;SDS011;36879;51.416;6.678;2022-08-21T12:09:05;0.95;;;0.65;;
50900;SDS011;36879;51.416;6.678;2022-08-21T12:11:32;1.52;;;0.80;;
50900;SDS011;36879;51.416;6.678;2022-08-21T12:14:12;1.58;;;0.75;;
50900;SDS011;36879;51.416;6.678;2022-08-21T12:16:43;2.92;;;0.82;;
50900;SDS011;36879;51.416;6.678;2022-08-21T12:19:13;1.55;;;0.75;;
50900;SDS011;36879;51.416;6.678;2022-08-21T12:21:58;1.40;;;0.60;;
50900;SDS011;36879;51.416;6.678;2022-08-21T12:26:54;1.48;;;0.85;;
50900;SDS011;36879;51.416;6.678;2022-08-21T12:31:54;4.00;;;1.00;;
50900;SDS011;36879;51.416;6.678;2022-08-21T12:34:22;2.00;;;0.93;;
50900;SDS011;36879;51.416;6.678;2022-08-21T12:36:54;2.67;;;1.02;;
50900;SDS011;36879;51.416;6.678;2022-08-21T12:39:25;4.95;;;1.23;;
50900;SDS011;36879;51.416;6.678;2022-08-21T12:44:42;1.73;;;0.80;;
50900;SDS011;36879;51.416;6.678;2022-08-21T12:47:17;3.67;;;1.08;;
50900;SDS011;36879;51.416;6.678;2022-08-21T12:49:51;2.92;;;0.82;;
50900;SDS011;36879;51.416;6.678;2022-08-21T12:52:21;2.85;;;1.25;;
50900;SDS011;36879;51.416;6.678;2022-08-21T12:54:47;10.95;;;1.42;;
50900;SDS011;36879;51.416;6.678;2022-08-21T12:57:18;2.38;;;0.88;;
50900;SDS011;36879;51.416;6.678;2022-08-21T12:59:44;2.15;;;1.00;;
50900;SDS011;36879;51.416;6.678;2022-08-21T13:02:14;3.60;;;0.90;;
50900;SDS011;36879;51.416;6.678;2022-08-21T13:04:41;1.98;;;0.73;;
50900;SDS011;36879;51.416;6.678;2022-08-21T13:07:09;2.03;;;0.65;;
50900;SDS011;36879;51.416;6.678;2022-08-21T13:09:39;0.98;;;0.55;;
50900;SDS011;36879;51.416;6.678;2022-08-21T13:12:08;2.63;;;0.65;;
50900;SDS011;36879;51.416;6.678;2022-08-21T13:14:38;1.90;;;0.60;;
50900;SDS011;36879;51.416;6.678;2022-08-21T13:17:05;1.50;;;0.60;;
50900;SDS011;36879;51.416;6.678;2022-08-21T13:19:32;1.63;;;0.90;;
50900;SDS011;36879;51.416;6.678;2022-08-21T13:21:59;2.90;;;0.98;;
50900;SDS011;36879;51.416;6.678;2022-08-21T13:24:27;3.88;;;0.85;;
50900;SDS011;36879;51.416;6.678;2022-08-21T13:26:54;2.92;;;0.77;;
50900;SDS011;36879;51.416;6.678;2022-08-21T13:29:21;2.05;;;1.38;;
50900;SDS011;36879;51.416;6.678;2022-08-21T13:31:49;2.58;;;1.08;;
50900;SDS011;36879;51.416;6.678;2022-08-21T13:34:16;2.25;;;0.82;;
50900;SDS011;36879;51.416;6.678;2022-08-21T13:36:43;2.60;;;0.93;;
50900;SDS011;36879;51.416;6.678;2022-08-21T13:39:11;2.83;;;0.80;;
50900;SDS011;36879;51.416;6.678;2022-08-21T13:41:38;1.55;;;0.95;;
50900;SDS011;36879;51.416;6.678;2022-08-21T13:44:14;2.38;;;1.20;;
50900;SDS011;36879;51.416;6.678;2022-08-21T13:46:40;1.17;;;0.65;;
50900;SDS011;36879;51.416;6.678;2022-08-21T13:49:07;4.65;;;0.98;;
50900;SDS011;36879;51.416;6.678;2022-08-21T13:51:35;2.72;;;0.70;;
50900;SDS011;36879;51.416;6.678;2022-08-21T13:54:01;3.53;;;0.88;;
50900;SDS011;36879;51.416;6.678;2022-08-21T13:56:29;1.42;;;0.80;;
50900;SDS011;36879;51.416;6.678;2022-08-21T13:58:56;1.98;;;0.85;;
50900;SDS011;36879;51.416;6.678;2022-08-21T14:01:26;1.35;;;0.75;;
50900;SDS011;36879;51.416;6.678;2022-08-21T14:03:54;7.05;;;1.52;;
50900;SDS011;36879;51.416;6.678;2022-08-21T14:06:24;3.13;;;1.02;;
50900;SDS011;36879;51.416;6.678;2022-08-21T14:08:51;3.50;;;0.95;;
50900;SDS011;36879;51.416;6.678;2022-08-21T14:11:18;2.47;;;1.00;;
50900;SDS011;36879;51.416;6.678;2022-08-21T14:13:46;4.22;;;0.90;;
50900;SDS011;36879;51.416;6.678;2022-08-21T14:16:18;4.75;;;1.35;;
50900;SDS011;36879;51.416;6.678;2022-08-21T14:18:45;3.63;;;1.20;;
50900;SDS011;36879;51.416;6.678;2022-08-21T14:21:12;3.50;;;1.65;;
50900;SDS011;36879;51.416;6.678;2022-08-21T14:23:38;3.25;;;0.90;;
50900;SDS011;36879;51.416;6.678;2022-08-21T14:26:05;4.80;;;1.15;;
50900;SDS011;36879;51.416;6.678;2022-08-21T14:28:41;3.28;;;1.30;;
50900;SDS011;36879;51.416;6.678;2022-08-21T14:31:12;3.75;;;0.90;;
50900;SDS011;36879;51.416;6.678;2022-08-21T14:33:38;3.17;;;1.10;;
50900;SDS011;36879;51.416;6.678;2022-08-21T14:36:04;2.15;;;1.33;;
50900;SDS011;36879;51.416;6.678;2022-08-21T14:38:31;2.92;;;1.05;;
50900;SDS011;36879;51.416;6.678;2022-08-21T14:40:58;3.17;;;1.08;;
50900;SDS011;36879;51.416;6.678;2022-08-21T14:43:25;3.03;;;1.15;;
50900;SDS011;36879;51.416;6.678;2022-08-21T14:45:52;3.05;;;1.38;;
50900;SDS011;36879;51.416;6.678;2022-08-21T14:48:18;3.22;;;1.00;;
50900;SDS011;36879;51.416;6.678;2022-08-21T14:50:44;2.83;;;1.10;;
50900;SDS011;36879;51.416;6.678;2022-08-21T14:53:11;1.67;;;0.90;;
50900;SDS011;36879;51.416;6.678;2022-08-21T14:55:37;2.28;;;0.70;;
50900;SDS011;36879;51.416;6.678;2022-08-21T14:58:22;2.92;;;1.10;;
50900;SDS011;36879;51.416;6.678;2022-08-21T15:00:50;2.80;;;0.90;;
50900;SDS011;36879;51.416;6.678;2022-08-21T15:03:16;2.70;;;0.93;;
50900;SDS011;36879;51.416;6.678;2022-08-21T15:05:42;1.10;;;1.00;;
50900;SDS011;36879;51.416;6.678;2022-08-21T15:08:09;2.17;;;0.70;;
50900;SDS011;36879;51.416;6.678;2022-08-21T15:10:35;2.22;;;1.23;;
50900;SDS011;36879;51.416;6.678;2022-08-21T15:13:02;1.98;;;0.70;;
50900;SDS011;36879;51.416;6.678;2022-08-21T15:15:29;0.73;;;0.60;;
50900;SDS011;36879;51.416;6.678;2022-08-21T15:17:56;1.55;;;0.88;;
50900;SDS011;36879;51.416;6.678;2022-08-21T15:20:22;3.92;;;1.20;;
50900;SDS011;36879;51.416;6.678;2022-08-21T15:22:48;4.22;;;1.40;;
50900;SDS011;36879;51.416;6.678;2022-08-21T15:25:14;2.67;;;0.85;;
50900;SDS011;36879;51.416;6.678;2022-08-21T15:27:40;1.50;;;0.88;;
50900;SDS011;36879;51.416;6.678;2022-08-21T15:30:06;3.05;;;0.93;;
50900;SDS011;36879;51.416;6.678;2022-08-21T15:32:32;2.30;;;0.70;;
50900;SDS011;36879;51.416;6.678;2022-08-21T15:34:59;1.35;;;0.70;;
50900;SDS011;36879;51.416;6.678;2022-08-21T15:37:25;2.83;;;0.70;;
50900;SDS011;36879;51.416;6.678;2022-08-21T15:39:51;2.08;;;1.05;;
50900;SDS011;36879;51.416;6.678;2022-08-21T15:42:17;3.97;;;0.90;;
50900;SDS011;36879;51.416;6.678;2022-08-21T15:44:44;2.55;;;1.55;;
50900;SDS011;36879;51.416;6.678;2022-08-21T15:47:18;1.55;;;0.90;;
50900;SDS011;36879;51.416;6.678;2022-08-21T15:49:45;4.63;;;1.13;;